Time;durP1;ratioP1;P1;durP2;ratioP2;P2;SDS_P1;SDS_P2;PMS_P1;PMS_P2;Temp;Humidity;BMP_temperature;BMP_pressure;BME280_temperature;BME280_humidity;BME280_pressure;Samples;Min_cycle;Max_cycle;Signal;HPM_P1;HPM_P2
2022/07/20 00:00:49;;;;;;;11.80;7.30;;;;;;;21.19;51.52;100517.56;106218;1271;107878;-79
2022/07/20 00:03:22;;;;;;;11.70;7.30;;;;;;;21.15;51.60;100520.52;106995;1271;138424;-80
2022/07/20 00:05:54;;;;;;;9.90;6.90;;;;;;;21.09;51.87;100516.13;106160;1271;97945;-79
2022/07/20 00:11:22;;;;;;;9.20;7.60;;;;;;;21.00;52.39;100512.70;106389;1277;138084;-79
2022/07/20 00:13:56;;;;;;;10.50;7.30;;;;;;;20.97;52.50;100514.02;107321;1277;108925;-79
2022/07/20 00:16:31;;;;;;;10.90;7.60;;;;;;;20.93;52.49;100515.89;106300;1276;138464;-79
2022/07/20 00:19:04;;;;;;;11.40;7.40;;;;;;;20.89;52.60;100517.27;107283;1277;96275;-80
2022/07/20 00:21:36;;;;;;;8.70;7.10;;;;;;;20.85;52.87;100521.73;107230;1276;138140;-80
2022/07/20 00:24:09;;;;;;;13.60;7.50;;;;;;;20.81;52.77;100521.11;107354;1276;108868;-80
2022/07/20 00:26:42;;;;;;;9.80;7.20;;;;;;;20.78;52.94;100525.98;107320;1276;109523;-80
2022/07/20 00:29:14;;;;;;;10.10;7.40;;;;;;;20.74;52.80;100527.33;106653;1276;138624;-78
2022/07/20 00:31:47;;;;;;;11.10;7.60;;;;;;;20.71;53.07;100529.47;107395;1275;96374;-78
2022/07/20 00:34:19;;;;;;;11.40;7.90;;;;;;;20.68;53.27;100527.56;105826;1276;139230;-79
2022/07/20 00:36:51;;;;;;;10.70;7.80;;;;;;;20.65;53.16;100532.77;105941;1276;109634;-79
2022/07/20 00:39:24;;;;;;;12.00;8.30;;;;;;;20.61;53.47;100533.85;107150;1277;138963;-79
2022/07/20 00:41:56;;;;;;;13.10;8.60;;;;;;;20.58;53.51;100529.30;105999;1276;98561;-79
2022/07/20 00:44:31;;;;;;;12.70;8.50;;;;;;;20.55;53.63;100530.42;105731;1277;97989;-79
2022/07/20 00:47:05;;;;;;;12.30;8.60;;;;;;;20.52;53.94;100530.81;105179;1276;138180;-78
2022/07/20 00:49:38;;;;;;;14.70;8.90;;;;;;;20.48;54.09;100532.66;106793;1273;108975;-79
2022/07/20 00:52:10;;;;;;;14.20;9.30;;;;;;;20.44;54.12;100532.02;106873;1273;138750;-78
2022/07/20 00:54:48;;;;;;;14.80;8.30;;;;;;;20.40;54.07;100526.98;107094;1271;96485;-78
2022/07/20 00:57:19;;;;;;;;;;;;;;;20.36;54.39;100529.88;106980;1271;139993;-78
2022/07/20 00:59:51;;;;;;;12.40;8.60;;;;;;;20.32;54.68;100531.42;107093;1271;112459;-78
2022/07/20 01:02:23;;;;;;;14.10;8.10;;;;;;;20.28;54.68;100537.51;107107;1271;108757;-78
2022/07/20 01:04:57;;;;;;;13.50;8.90;;;;;;;20.23;54.79;100536.25;105374;1271;138851;-78
2022/07/20 01:07:29;;;;;;;10.90;8.00;;;;;;;20.19;54.88;100537.77;105423;1271;97827;-76
2022/07/20 01:10:02;;;;;;;10.50;8.10;;;;;;;20.15;54.89;100540.02;105903;1273;139190;-78
2022/07/20 01:12:34;;;;;;;10.70;8.30;;;;;;;20.12;55.08;100545.13;106227;1271;112315;-79
2022/07/20 01:15:09;;;;;;;13.60;7.90;;;;;;;20.10;54.88;100548.44;106235;1271;139134;-78
2022/07/20 01:17:41;;;;;;;11.60;8.50;;;;;;;20.08;55.29;100549.80;106421;1271;108854;-78
2022/07/20 01:20:19;;;;;;;13.40;8.60;;;;;;;20.05;55.44;100549.14;106214;1271;97837;-78
2022/07/20 01:22:52;;;;;;;15.90;8.90;;;;;;;20.01;55.62;100552.27;106436;1270;138854;-78
2022/07/20 01:25:25;;;;;;;12.00;8.50;;;;;;;19.98;55.77;100552.45;106181;1271;111789;-79
2022/07/20 01:27:59;;;;;;;11.60;8.20;;;;;;;19.95;55.76;100554.21;106140;1271;138884;-78
2022/07/20 01:30:32;;;;;;;13.20;8.70;;;;;;;19.92;55.72;100556.02;107764;1271;110201;-78
2022/07/20 01:33:04;;;;;;;13.90;8.50;;;;;;;19.87;55.80;100556.31;106726;1271;139048;-77
2022/07/20 01:35:37;;;;;;;13.80;8.00;;;;;;;19.83;55.82;100558.73;106198;1271;97822;-78
2022/07/20 01:38:09;;;;;;;12.90;8.20;;;;;;;19.78;56.14;100557.98;106162;1271;113226;-79
2022/07/20 01:40:42;;;;;;;11.40;7.90;;;;;;;19.73;56.32;100560.09;106044;1273;139783;-80
2022/07/20 01:43:14;;;;;;;10.80;8.30;;;;;;;19.70;56.41;100559.25;106136;1270;108793;-79
2022/07/20 01:45:47;;;;;;;12.60;8.50;;;;;;;19.65;56.42;100555.13;106051;1272;139517;-78
2022/07/20 01:48:20;;;;;;;10.30;8.00;;;;;;;19.61;56.61;100556.29;107769;1270;96199;-79
2022/07/20 01:50:52;;;;;;;11.90;7.90;;;;;;;19.57;56.61;100559.16;107235;1271;113700;-79
2022/07/20 01:53:25;;;;;;;10.60;7.60;;;;;;;19.54;56.96;100559.17;107651;1271;139087;-79
2022/07/20 01:55:58;;;;;;;10.70;7.80;;;;;;;19.50;56.92;100556.63;107667;1271;108857;-80
2022/07/20 01:58:30;;;;;;;13.40;8.00;;;;;;;19.47;57.01;100558.73;106079;1271;138893;-79
2022/07/20 02:01:04;;;;;;;11.10;7.40;;;;;;;19.43;57.14;100557.05;107777;1271;96027;-79
2022/07/20 02:03:37;;;;;;;11.40;7.40;;;;;;;19.40;57.26;100557.64;107395;1271;139641;-78
2022/07/20 02:06:10;;;;;;;12.60;7.80;;;;;;;19.37;57.38;100553.41;106333;1271;108815;-79
2022/07/20 02:08:43;;;;;;;12.60;7.70;;;;;;;19.34;57.60;100553.40;107670;1271;108004;-80
2022/07/20 02:11:16;;;;;;;10.90;8.00;;;;;;;19.32;57.56;100553.35;107599;1271;139092;-80
2022/07/20 02:13:48;;;;;;;13.00;8.30;;;;;;;19.30;57.82;100554.67;107648;1273;96146;-79
2022/07/20 02:16:21;;;;;;;10.20;7.80;;;;;;;19.28;57.77;100552.36;107608;1271;139354;-79
2022/07/20 02:18:56;;;;;;;9.90;7.70;;;;;;;19.25;58.00;100553.41;107680;1271;108356;-80
2022/07/20 02:21:29;;;;;;;11.10;7.70;;;;;;;19.23;57.91;100552.17;106228;1271;138895;-80
2022/07/20 02:24:01;;;;;;;10.60;7.50;;;;;;;19.20;58.01;100555.48;106132;1273;97835;-79
2022/07/20 02:26:34;;;;;;;10.80;6.90;;;;;;;19.16;58.10;100555.73;107664;1271;96423;-79
2022/07/20 02:29:06;;;;;;;11.60;8.80;;;;;;;19.13;58.23;100561.05;107584;1271;139042;-80
2022/07/20 02:31:39;;;;;;;13.70;9.70;;;;;;;19.11;58.22;100565.27;107200;1271;108945;-79
2022/07/20 02:34:13;;;;;;;13.40;8.80;;;;;;;19.07;58.32;100569.73;106296;1273;139485;-79
2022/07/20 02:36:46;;;;;;;14.70;12.30;;;;;;;19.02;58.51;100568.08;107080;1273;97850;-80
2022/07/20 02:39:18;;;;;;;11.90;7.80;;;;;;;18.98;58.57;100569.56;106082;1271;143293;-78
2022/07/20 02:41:51;;;;;;;12.90;8.70;;;;;;;18.95;58.68;100571.89;106204;1271;112499;-79
2022/07/20 02:44:23;;;;;;;17.90;11.10;;;;;;;18.91;58.86;100570.20;106190;1271;107885;-77
2022/07/20 02:46:56;;;;;;;19.70;13.10;;;;;;;18.86;58.81;100569.08;106081;1271;139207;-78
2022/07/20 02:49:29;;;;;;;13.00;9.50;;;;;;;18.83;58.88;100572.26;107630;1273;96146;-79
2022/07/20 02:52:01;;;;;;;11.60;9.10;;;;;;;18.80;59.02;100572.09;107547;1272;138563;-78
2022/07/20 02:54:33;;;;;;;16.60;10.00;;;;;;;18.78;59.11;100576.84;107718;1273;113489;-79
2022/07/20 02:57:06;;;;;;;11.30;7.90;;;;;;;18.76;59.32;100574.84;107620;1271;139998;-78
2022/07/20 02:59:38;;;;;;;15.10;9.10;;;;;;;18.75;59.32;100574.20;107414;1273;109162;-77
2022/07/20 03:02:11;;;;;;;12.10;9.00;;;;;;;18.74;59.25;100577.92;106194;1273;97859;-78
2022/07/20 03:04:43;;;;;;;13.90;8.30;;;;;;;18.75;59.38;100581.45;106048;1273;138689;-78
2022/07/20 03:07:17;;;;;;;11.00;7.60;;;;;;;18.76;59.36;100585.98;107716;1271;112531;-79
2022/07/20 03:09:49;;;;;;;12.70;7.60;;;;;;;18.76;59.40;100590.33;107213;1273;138963;-78
2022/07/20 03:12:22;;;;;;;12.90;8.10;;;;;;;18.76;59.54;100594.92;106949;1273;109613;-79
2022/07/20 03:14:54;;;;;;;13.20;7.50;;;;;;;18.78;59.52;100593.20;107076;1271;96122;-79
2022/07/20 03:17:28;;;;;;;10.00;7.20;;;;;;;18.81;59.51;100597.08;107049;1273;96793;-79
2022/07/20 03:20:00;;;;;;;12.70;8.00;;;;;;;18.83;59.41;100599.42;107036;1273;111421;-79
2022/07/20 03:22:33;;;;;;;11.30;6.90;;;;;;;18.84;59.22;100598.14;106920;1273;140222;-79
2022/07/20 03:25:06;;;;;;;12.30;7.70;;;;;;;18.84;59.26;100601.81;107062;1273;107100;-80
2022/07/20 03:27:39;;;;;;;10.40;7.40;;;;;;;18.87;59.44;100602.20;106884;1273;139275;-79
2022/07/20 03:30:13;;;;;;;9.50;7.40;;;;;;;18.90;59.47;100599.70;107072;1273;97175;-79
2022/07/20 03:32:46;;;;;;;11.10;7.50;;;;;;;18.93;59.42;100597.21;107022;1273;112046;-80
2022/07/20 03:35:19;;;;;;;11.20;8.20;;;;;;;18.97;59.50;100597.86;107515;1271;139255;-79
2022/07/20 03:37:52;;;;;;;10.80;8.00;;;;;;;19.01;59.46;100594.06;107095;1273;108233;-79
2022/07/20 03:40:24;;;;;;;12.30;7.90;;;;;;;19.06;59.48;100598.71;106063;1273;138706;-79
2022/07/20 03:42:57;;;;;;;11.10;7.70;;;;;;;19.10;59.42;100601.80;106209;1273;97870;-78
2022/07/20 03:45:29;;;;;;;10.40;7.80;;;;;;;19.13;59.26;100604.77;106069;1273;139713;-81
2022/07/20 03:48:02;;;;;;;11.80;8.00;;;;;;;19.16;59.30;100605.14;107702;1273;108814;-79
2022/07/20 03:50:34;;;;;;;10.80;8.00;;;;;;;19.19;59.11;100609.68;107090;1273;106235;-79
2022/07/20 03:53:07;;;;;;;10.70;7.90;;;;;;;19.22;59.19;100607.23;107588;1272;139425;-80
2022/07/20 03:55:40;;;;;;;11.70;8.00;;;;;;;19.25;59.11;100608.07;107676;1273;96365;-80
2022/07/20 03:58:12;;;;;;;12.70;8.10;;;;;;;19.28;59.12;100614.03;106128;1273;138693;-78
2022/07/20 04:00:45;;;;;;;10.60;8.00;;;;;;;19.33;59.11;100617.98;106151;1273;108952;-79
2022/07/20 04:03:18;;;;;;;12.50;8.50;;;;;;;19.38;59.08;100621.23;107557;1273;139013;-79
2022/07/20 04:05:50;;;;;;;13.90;8.40;;;;;;;19.42;59.01;100619.05;107388;1271;98419;-78
2022/07/20 04:08:23;;;;;;;12.20;8.30;;;;;;;19.46;58.93;100619.98;107789;1271;96998;-79
2022/07/20 04:10:55;;;;;;;12.40;7.50;;;;;;;19.53;58.75;100622.04;107650;1271;139081;-81
2022/07/20 04:13:27;;;;;;;11.70;7.90;;;;;;;19.60;58.58;100626.55;107760;1271;108460;-81
2022/07/20 04:16:00;;;;;;;11.30;7.90;;;;;;;19.66;58.47;100627.42;106341;1271;138686;-80
2022/07/20 04:18:32;;;;;;;11.00;8.00;;;;;;;19.71;58.58;100630.42;107230;1271;96413;-80
2022/07/20 04:21:05;;;;;;;12.70;8.00;;;;;;;19.78;58.52;100632.78;106154;1271;138777;-79
2022/07/20 04:23:38;;;;;;;12.50;8.40;;;;;;;19.89;58.58;100636.66;107753;1271;111371;-80
2022/07/20 04:26:10;;;;;;;8.70;7.20;;;;;;;19.99;58.42;100643.48;107758;1271;107828;-80
2022/07/20 04:28:43;;;;;;;13.90;8.10;;;;;;;20.08;58.24;100643.73;107623;1271;138549;-81
2022/07/20 04:31:15;;;;;;;16.50;9.00;;;;;;;20.18;58.24;100645.38;107735;1273;96220;-81
2022/07/20 04:33:48;;;;;;;13.50;8.20;;;;;;;20.27;57.92;100644.95;106195;1271;138771;-80
2022/07/20 04:36:20;;;;;;;13.30;8.20;;;;;;;20.36;57.99;100642.77;106142;1271;112637;-80
2022/07/20 04:38:53;;;;;;;14.70;9.00;;;;;;;20.45;57.80;100641.13;107760;1271;108857;-81
2022/07/20 04:41:26;;;;;;;11.50;8.00;;;;;;;20.55;57.72;100639.09;107646;1271;247672;-81
2022/07/20 04:43:58;;;;;;;14.80;8.60;;;;;;;20.63;57.45;100634.79;107741;1271;96006;-81
2022/07/20 04:46:31;;;;;;;14.80;8.20;;;;;;;20.71;57.29;100631.63;107633;1271;138551;-81
2022/07/20 04:49:04;;;;;;;13.20;9.00;;;;;;;20.77;57.22;100632.39;107681;1273;111670;-81
2022/07/20 04:51:36;;;;;;;10.80;8.00;;;;;;;20.84;57.12;100632.15;107664;1271;138994;-81
2022/07/20 04:54:09;;;;;;;12.70;8.40;;;;;;;20.93;57.21;100629.75;107230;1271;108805;-80
2022/07/20 04:56:41;;;;;;;15.30;8.80;;;;;;;21.02;57.16;100625.41;107047;1271;97818;-80
2022/07/20 04:59:14;;;;;;;14.70;8.80;;;;;;;21.10;57.07;100625.33;107570;1273;138433;-80
2022/07/20 05:01:46;;;;;;;13.70;8.60;;;;;;;21.21;57.02;100630.98;106314;1271;111281;-80
2022/07/20 05:04:20;;;;;;;13.20;8.20;;;;;;;21.31;57.02;100630.27;106967;1271;138813;-80
2022/07/20 05:06:52;;;;;;;19.10;9.70;;;;;;;21.42;56.81;100631.78;107063;1271;108170;-81
2022/07/20 05:09:26;;;;;;;16.60;8.50;;;;;;;21.55;56.63;100633.36;106959;1271;140099;-80
2022/07/20 05:11:58;;;;;;;16.60;8.20;;;;;;;21.70;56.60;100632.43;107023;1273;97425;-80
2022/07/20 05:14:31;;;;;;;11.30;7.70;;;;;;;21.89;56.48;100630.66;107057;1271;112530;-80
2022/07/20 05:17:03;;;;;;;14.50;8.60;;;;;;;22.12;56.48;100629.89;106952;1273;141319;-79
2022/07/20 05:19:36;;;;;;;14.50;8.10;;;;;;;22.38;56.21;100628.88;107114;1271;107953;-80
2022/07/20 05:22:08;;;;;;;13.50;8.30;;;;;;;22.66;55.80;100629.89;106957;1271;138694;-81
2022/07/20 05:24:40;;;;;;;15.10;7.90;;;;;;;22.96;55.07;100628.51;107492;1271;95997;-80
2022/07/20 05:27:12;;;;;;;14.60;7.50;;;;;;;23.23;54.73;100628.66;107665;1271;138404;-81
2022/07/20 05:29:45;;;;;;;14.70;8.30;;;;;;;23.49;53.76;100637.22;107730;1271;109824;-81
2022/07/20 05:32:17;;;;;;;13.00;7.40;;;;;;;23.67;52.93;100640.64;107745;1271;108579;-80
2022/07/20 05:34:50;;;;;;;12.80;6.90;;;;;;;23.87;52.74;100645.68;107654;1271;139177;-80
2022/07/20 05:37:22;;;;;;;15.60;7.40;;;;;;;24.16;52.72;100646.73;107682;1271;96107;-80
2022/07/20 05:39:54;;;;;;;10.20;7.30;;;;;;;24.55;51.95;100646.45;107639;1271;138412;-80
2022/07/20 05:42:26;;;;;;;8.90;6.40;;;;;;;25.09;50.96;100645.77;107770;1271;108855;-80
2022/07/20 05:44:59;;;;;;;14.40;6.50;;;;;;;25.82;49.65;100644.02;107750;1271;108058;-80
2022/07/20 05:47:31;;;;;;;11.90;6.30;;;;;;;26.79;48.27;100646.52;107790;1271;96317;-80
2022/07/20 05:50:04;;;;;;;11.10;6.20;;;;;;;27.92;46.61;100645.80;107798;1271;96134;-80
2022/07/20 05:52:36;;;;;;;9.80;5.50;;;;;;;29.17;44.99;100643.81;107650;1271;138057;-80
2022/07/20 05:55:10;;;;;;;10.90;6.00;;;;;;;30.56;43.14;100636.85;106396;1271;109001;-81
2022/07/20 05:57:42;;;;;;;8.30;5.70;;;;;;;31.99;40.34;100636.17;107566;1273;138819;-81
2022/07/20 06:00:17;;;;;;;8.90;5.30;;;;;;;33.13;38.64;100630.14;107777;1271;96111;-81
2022/07/20 06:02:49;;;;;;;11.10;5.40;;;;;;;34.40;37.39;100630.37;107778;1271;95832;-80
2022/07/20 06:05:22;;;;;;;11.90;5.60;;;;;;;35.33;35.52;100628.05;107660;1271;138684;-79
2022/07/20 06:07:56;;;;;;;16.20;5.60;;;;;;;35.77;34.04;100632.55;107769;1271;108933;-81
2022/07/20 06:10:29;;;;;;;11.10;5.90;;;;;;;36.40;33.44;100632.55;107632;1271;138570;-81
2022/07/20 06:13:02;;;;;;;7.10;5.10;;;;;;;37.28;32.31;100631.18;107546;1271;96303;-81
2022/07/20 06:15:41;;;;;;;7.50;4.40;;;;;;;38.27;31.27;100635.12;107610;1271;138636;-81
2022/07/20 06:18:13;;;;;;;11.50;4.70;;;;;;;39.20;29.96;100636.42;107777;1271;110917;-82
2022/07/20 06:20:54;;;;;;;11.50;4.70;;;;;;;40.04;28.82;100639.94;107756;1273;106549;-81
2022/07/20 06:23:26;;;;;;;8.70;4.80;;;;;;;40.61;27.72;100650.91;106699;1273;139001;-81
2022/07/20 06:25:58;;;;;;;10.20;4.80;;;;;;;41.00;26.58;100656.50;107748;1271;96208;-81
2022/07/20 06:28:31;;;;;;;7.40;3.70;;;;;;;41.53;25.91;100652.39;107231;1271;137717;-81
2022/07/20 06:31:05;;;;;;;7.60;3.60;;;;;;;42.08;25.01;100649.58;106476;1271;112445;-81
2022/07/20 06:33:38;;;;;;;4.90;3.60;;;;;;;42.75;24.00;100647.86;105832;1272;138177;-81
2022/07/20 06:36:12;;;;;;;5.50;4.00;;;;;;;43.64;23.06;100644.89;106427;1271;108684;-80
2022/07/20 06:38:44;;;;;;;10.80;4.40;;;;;;;44.49;22.60;100648.10;107757;1271;96039;-81
2022/07/20 06:41:17;;;;;;;8.10;3.90;;;;;;;45.13;21.83;100650.34;107684;1271;137811;-81
2022/07/20 06:43:49;;;;;;;7.80;4.10;;;;;;;45.76;21.15;100646.69;107418;1271;112449;-82
2022/07/20 06:46:22;;;;;;;11.60;4.40;;;;;;;46.34;20.51;100640.98;106649;1271;138983;-81
2022/07/20 06:48:54;;;;;;;9.00;3.60;;;;;;;46.73;19.51;100643.71;107313;1271;108865;-81
2022/07/20 06:51:28;;;;;;;6.60;3.80;;;;;;;47.02;18.80;100640.33;107221;1271;139978;-82
2022/07/20 06:54:03;;;;;;;8.50;3.70;;;;;;;47.13;18.29;100637.98;107063;1271;96299;-81
2022/07/20 06:56:44;;;;;;;8.40;3.70;;;;;;;47.12;18.08;100641.57;105951;1272;112970;-81
2022/07/20 06:59:17;;;;;;;8.70;4.30;;;;;;;47.13;18.19;100641.13;107515;1271;138008;-82
2022/07/20 07:01:50;;;;;;;11.90;4.50;;;;;;;47.05;17.57;100642.58;106160;1271;108843;-82
2022/07/20 07:04:23;;;;;;;9.80;4.30;;;;;;;46.92;17.25;100643.06;106928;1271;137959;-82
2022/07/20 07:06:58;;;;;;;8.60;3.80;;;;;;;46.99;17.82;100644.14;107073;1271;96952;-82
2022/07/20 07:09:31;;;;;;;9.60;4.50;;;;;;;47.28;17.81;100647.38;106963;1271;137763;-82
2022/07/20 07:12:05;;;;;;;9.60;4.40;;;;;;;47.42;17.66;100645.65;107032;1271;108575;-82
2022/07/20 07:14:38;;;;;;;8.20;4.20;;;;;;;47.42;17.56;100642.99;107054;1271;108949;-82
2022/07/20 07:17:11;;;;;;;11.20;3.80;;;;;;;47.45;17.24;100647.13;107238;1271;138408;-82
2022/07/20 07:19:44;;;;;;;9.20;4.40;;;;;;;47.35;17.16;100644.23;107779;1271;96274;-82
2022/07/20 07:22:16;;;;;;;9.50;4.50;;;;;;;47.51;17.21;100643.40;107699;1271;138012;-82
2022/07/20 07:24:48;;;;;;;8.30;4.30;;;;;;;47.90;17.14;100642.40;107759;1271;109123;-82
2022/07/20 07:27:22;;;;;;;11.80;4.60;;;;;;;48.28;16.35;100644.27;106157;1271;140331;-80
2022/07/20 07:29:54;;;;;;;9.10;3.50;;;;;;;48.57;16.15;100645.52;105774;1273;97843;-82
2022/07/20 07:32:27;;;;;;;8.70;3.60;;;;;;;48.52;15.80;100642.02;106044;1271;97803;-82
2022/07/20 07:34:59;;;;;;;12.60;4.00;;;;;;;48.20;15.76;100646.44;106089;1271;139124;-82
2022/07/20 07:37:39;;;;;;;7.20;3.40;;;;;;;48.18;15.83;100647.79;105790;1271;107399;-82
2022/07/20 07:40:13;;;;;;;6.50;3.90;;;;;;;48.38;15.67;100647.90;107668;1271;138642;-80
2022/07/20 07:42:46;;;;;;;8.50;3.40;;;;;;;48.49;15.49;100649.90;107109;1271;96477;-80
2022/07/20 07:45:18;;;;;;;6.00;3.40;;;;;;;48.38;15.08;100651.27;107690;1271;140817;-81
2022/07/20 07:47:51;;;;;;;6.60;3.60;;;;;;;48.47;15.30;100651.25;107645;1271;110512;-80
2022/07/20 07:50:23;;;;;;;5.60;3.20;;;;;;;48.97;15.26;100650.73;107483;1271;109345;-80
2022/07/20 07:52:56;;;;;;;5.10;3.40;;;;;;;49.06;14.92;100647.73;106754;1271;137823;-80
2022/07/20 07:55:28;;;;;;;10.60;3.00;;;;;;;49.15;15.10;100648.15;106334;1271;97864;-80
2022/07/20 07:58:02;;;;;;;5.50;3.70;;;;;;;49.55;15.02;100650.58;107680;1271;137812;-81
2022/07/20 08:00:38;;;;;;;5.60;3.30;;;;;;;49.74;14.79;100650.42;107788;1271;110606;-80
2022/07/20 08:03:11;;;;;;;4.40;3.40;;;;;;;49.65;14.52;100645.08;107646;1271;138138;-80
2022/07/20 08:05:43;;;;;;;10.50;3.50;;;;;;;49.47;14.37;100643.21;107741;1271;109017;-81
2022/07/20 08:08:17;;;;;;;8.40;3.60;;;;;;;49.40;14.47;100644.64;107430;1271;95915;-82
2022/07/20 08:10:49;;;;;;;5.00;3.00;;;;;;;49.47;14.40;100644.48;106998;1271;137704;-82
2022/07/20 08:13:22;;;;;;;5.90;3.30;;;;;;;49.44;14.33;100643.30;107043;1271;111425;-82
2022/07/20 08:15:54;;;;;;;5.00;3.00;;;;;;;49.33;13.92;100635.81;106987;1271;139764;-82
2022/07/20 08:18:27;;;;;;;6.70;3.60;;;;;;;49.02;14.04;100637.23;106720;1271;110193;-82
2022/07/20 08:20:59;;;;;;;4.30;3.10;;;;;;;48.70;14.14;100634.30;107068;1271;96122;-82
2022/07/20 08:23:32;;;;;;;7.20;3.50;;;;;;;48.62;14.35;100631.98;106568;1271;97965;-81
2022/07/20 08:26:05;;;;;;;9.80;3.60;;;;;;;48.53;14.41;100627.11;106252;1271;112293;-82
2022/07/20 08:28:37;;;;;;;8.50;3.30;;;;;;;48.47;14.18;100622.08;107531;1271;138188;-82
2022/07/20 08:31:10;;;;;;;7.30;3.20;;;;;;;48.31;14.19;100623.34;106214;1271;108822;-82
2022/07/20 08:33:43;;;;;;;5.20;3.40;;;;;;;48.03;14.14;100626.33;107640;1271;138055;-83
2022/07/20 08:36:15;;;;;;;8.50;3.90;;;;;;;47.90;14.63;100627.24;106446;1271;97704;-83
2022/07/20 08:38:47;;;;;;;5.60;3.50;;;;;;;47.72;14.41;100624.83;107792;1269;112557;-82
2022/07/20 08:41:22;;;;;;;7.20;3.50;;;;;;;47.37;14.60;100629.70;107672;1271;139460;-83
2022/07/20 08:43:55;;;;;;;6.90;3.90;;;;;;;47.20;15.12;100623.92;106376;1271;108377;-82
2022/07/20 08:46:30;;;;;;;7.90;4.10;;;;;;;47.40;14.86;100618.26;106059;1271;138025;-81
2022/07/20 08:49:03;;;;;;;10.00;4.00;;;;;;;47.49;15.24;100616.45;107756;1271;95984;-82
2022/07/20 08:51:36;;;;;;;11.30;4.60;;;;;;;47.30;15.39;100610.63;107477;1271;138183;-82
2022/07/20 08:54:09;;;;;;;10.00;4.10;;;;;;;47.15;15.35;100607.98;106968;1273;109346;-82
2022/07/20 08:56:42;;;;;;;7.00;3.80;;;;;;;47.16;15.20;100615.05;107730;1271;108878;-82
2022/07/20 08:59:14;;;;;;;7.70;3.90;;;;;;;47.26;15.38;100616.40;106080;1271;137276;-81
2022/07/20 09:02:04;;;;;;;8.80;4.00;;;;;;;47.24;15.59;100614.98;106224;1271;97711;-81
2022/07/20 09:04:51;;;;;;;11.50;4.30;;;;;;;47.08;15.15;100615.14;106081;1271;137725;-81
2022/07/20 09:07:39;;;;;;;11.40;4.70;;;;;;;47.30;15.34;100616.60;106202;1271;109078;-82
2022/07/20 09:10:14;;;;;;;9.20;5.00;;;;;;;47.40;15.58;100620.58;105697;1271;138457;-82
2022/07/20 09:12:58;;;;;;;10.00;4.80;;;;;;;47.21;15.51;100617.08;106033;1269;99919;-81
2022/07/20 09:15:40;;;;;;;8.30;4.20;;;;;;;47.22;15.23;100616.14;105335;1271;138055;-82
2022/07/20 09:18:18;;;;;;;7.20;3.80;;;;;;;46.78;15.45;100615.31;107093;1271;110612;-83
2022/07/20 09:20:54;;;;;;;5.80;3.40;;;;;;;46.38;15.54;100615.77;107031;1271;108962;-82
2022/07/20 09:23:30;;;;;;;5.10;3.80;;;;;;;46.32;15.36;100617.19;106914;1271;137943;-81
2022/07/20 09:26:04;;;;;;;8.30;3.60;;;;;;;46.23;15.79;100611.36;107191;1271;96652;-81
2022/07/20 09:28:40;;;;;;;5.60;3.20;;;;;;;46.22;15.63;100613.56;106742;1271;590121;-81
2022/07/20 09:31:16;;;;;;;7.00;3.50;;;;;;;46.13;16.01;100616.48;107785;1271;112890;-82
2022/07/20 09:34:14;;;;;;;5.40;3.40;;;;;;;45.99;15.72;100616.03;107691;1270;138333;-82
2022/07/20 09:36:48;;;;;;;5.20;3.10;;;;;;;45.63;15.93;100614.97;106162;1271;108676;-84
2022/07/20 09:39:22;;;;;;;5.40;3.50;;;;;;;45.42;16.09;100618.48;107390;1271;138570;-83
2022/07/20 09:41:57;;;;;;;4.80;3.30;;;;;;;45.04;15.94;100619.64;106244;1271;97819;-83
2022/07/20 09:44:31;;;;;;;6.70;3.70;;;;;;;44.96;16.63;100618.15;107736;1271;112598;-81
2022/07/20 09:47:13;;;;;;;5.80;3.30;;;;;;;44.92;16.48;100616.48;107493;1271;138636;-81
2022/07/20 09:49:45;;;;;;;7.10;3.40;;;;;;;44.92;17.01;100612.98;106219;1271;110069;-81
2022/07/20 09:52:18;;;;;;;9.80;3.50;;;;;;;44.80;16.83;100611.61;106079;1271;138983;-81
2022/07/20 09:55:07;;;;;;;7.10;3.50;;;;;;;44.58;16.68;100607.02;106167;1271;97822;-80
2022/07/20 09:57:40;;;;;;;6.10;3.40;;;;;;;44.31;16.78;100598.19;107674;1271;138021;-81
2022/07/20 10:00:14;;;;;;;5.10;3.10;;;;;;;44.01;16.76;100597.84;106561;1271;108963;-81
2022/07/20 10:02:49;;;;;;;4.20;2.80;;;;;;;43.70;16.68;100601.84;107766;1271;108698;-82
2022/07/20 10:05:23;;;;;;;4.60;2.60;;;;;;;43.67;17.27;100601.04;107614;1271;137683;-81
2022/07/20 10:07:56;;;;;;;4.80;3.00;;;;;;;43.68;17.47;100600.45;107788;1271;96226;-82
2022/07/20 10:10:29;;;;;;;10.50;3.00;;;;;;;43.60;17.47;100597.17;106701;1271;137870;-81
2022/07/20 10:13:03;;;;;;;7.60;3.40;;;;;;;43.39;17.29;100595.98;107793;1271;108874;-82
2022/07/20 10:15:41;;;;;;;4.80;4.00;;;;;;;43.13;17.48;100602.02;107475;1271;138214;-81
2022/07/20 10:18:16;;;;;;;7.80;3.40;;;;;;;42.76;17.35;100598.98;106506;1271;97839;-79
2022/07/20 10:20:52;;;;;;;5.90;2.90;;;;;;;42.71;17.50;100594.03;107817;1269;96143;-81
2022/07/20 10:23:33;;;;;;;9.00;3.00;;;;;;;42.61;17.40;100594.77;107662;1271;137550;-81
2022/07/20 10:26:08;;;;;;;4.60;3.20;;;;;;;42.52;17.61;100598.75;107791;1271;108813;-81
2022/07/20 10:28:41;;;;;;;6.10;3.10;;;;;;;42.41;18.25;100602.55;107297;1273;138456;-82
2022/07/20 10:31:17;;;;;;;6.60;3.30;;;;;;;42.31;18.12;100603.38;107752;1271;95811;-81
2022/07/20 10:33:50;;;;;;;4.20;3.30;;;;;;;42.22;18.15;100602.80;107663;1271;138663;-81
2022/07/20 10:39:45;;;;;;;6.70;3.50;;;;;;;41.74;18.34;100600.23;105863;1271;138031;-81
2022/07/20 10:42:26;;;;;;;6.30;3.50;;;;;;;41.54;18.24;100602.86;107786;1271;108753;-82
2022/07/20 10:45:29;;;;;;;6.60;3.40;;;;;;;41.24;18.31;100602.58;107768;1271;96413;-82
2022/07/20 10:48:18;;;;;;;5.60;3.20;;;;;;;40.95;18.71;100611.73;106449;1271;97838;-82
2022/07/20 10:50:53;;;;;;;6.40;3.40;;;;;;;40.63;19.20;100604.90;107803;1271;113529;-82
2022/07/20 10:53:40;;;;;;;4.50;3.20;;;;;;;40.54;19.33;100604.59;106999;1271;138548;-81
2022/07/20 10:56:14;;;;;;;4.40;3.40;;;;;;;40.38;19.50;100600.54;107707;1271;108657;-82
2022/07/20 10:58:46;;;;;;;5.30;3.60;;;;;;;40.08;19.30;100603.06;107493;1271;137947;-81
2022/07/20 11:01:19;;;;;;;8.90;3.70;;;;;;;39.94;19.30;100605.67;107800;1271;96322;-82
2022/07/20 11:03:51;;;;;;;4.80;2.70;;;;;;;39.85;19.29;100601.01;106179;1272;138855;-81
2022/07/20 11:06:25;;;;;;;5.50;3.20;;;;;;;39.66;19.11;100594.55;106004;1271;108943;-81
2022/07/20 11:09:00;;;;;;;4.00;2.90;;;;;;;39.36;19.31;100592.70;106221;1271;109119;-79
2022/07/20 11:11:37;;;;;;;3.50;3.00;;;;;;;39.07;19.72;100591.84;106728;1271;97848;-82
2022/07/20 11:14:11;;;;;;;3.30;3.00;;;;;;;38.83;19.93;100588.48;107654;1271;96020;-82
2022/07/20 11:16:45;;;;;;;4.20;3.00;;;;;;;38.68;20.28;100592.46;107433;1271;138835;-82
2022/07/20 11:19:18;;;;;;;6.00;3.20;;;;;;;38.42;20.62;100592.69;106485;1271;108500;-81
2022/07/20 11:21:51;;;;;;;4.20;2.90;;;;;;;38.20;20.68;100595.28;107654;1271;138831;-82
2022/07/20 11:24:25;;;;;;;4.30;3.00;;;;;;;38.12;20.95;100592.33;107669;1271;96286;-82
2022/07/20 11:27:12;;;;;;;5.30;3.10;;;;;;;38.08;21.33;100592.36;107133;1271;97431;-83
2022/07/20 11:29:51;;;;;;;6.80;3.10;;;;;;;38.02;20.78;100589.70;107041;1271;112478;-82
2022/07/20 11:32:27;;;;;;;5.90;2.90;;;;;;;37.90;20.71;100592.02;107162;1271;109994;-82
2022/07/20 11:35:00;;;;;;;4.20;3.20;;;;;;;37.78;21.23;100590.54;107016;1271;138630;-82
2022/07/20 11:37:32;;;;;;;7.90;3.50;;;;;;;37.69;21.15;100587.48;107147;1271;96416;-83
2022/07/20 11:40:05;;;;;;;5.20;3.60;;;;;;;37.56;21.69;100584.15;107054;1271;138728;-82
2022/07/20 11:42:38;;;;;;;3.70;3.10;;;;;;;37.50;21.67;100581.44;107133;1271;112426;-82